createdAt,value
2022-09-05T00:00:05.235Z,3.97
2022-09-05T00:02:41.756Z,4.03
2022-09-05T00:06:02.563Z,4.27
2022-09-05T00:08:47.769Z,3.73
2022-09-05T00:11:41.126Z,3.70
2022-09-05T00:15:16.246Z,3.73
2022-09-05T00:17:47.217Z,3.70
2022-09-05T00:24:22.455Z,4.00
2022-09-05T00:24:29.932Z,3.40
2022-09-05T00:26:29.332Z,4.20
2022-09-05T00:29:11.540Z,4.00
2022-09-05T00:31:57.651Z,3.83
2022-09-05T00:34:47.507Z,3.90
2022-09-05T00:37:28.375Z,3.00
2022-09-05T00:40:18.347Z,3.00
2022-09-05T00:42:49.839Z,3.40
2022-09-05T00:45:25.105Z,3.23
2022-09-05T00:47:59.735Z,3.50
2022-09-05T00:50:34.414Z,3.50
2022-09-05T00:53:08.926Z,3.30
2022-09-05T00:55:48.820Z,3.73
2022-09-05T00:58:40.210Z,3.43
2022-09-05T01:01:26.118Z,3.40
2022-09-05T01:04:20.671Z,4.30
2022-09-05T01:07:13.443Z,3.87
2022-09-05T01:09:53.598Z,4.40
2022-09-05T01:12:53.414Z,4.47
2022-09-05T01:15:32.160Z,4.03
2022-09-05T01:18:12.608Z,4.17
2022-09-05T01:21:02.707Z,4.57
2022-09-05T01:24:08.937Z,3.80
2022-09-05T01:26:58.419Z,3.70
2022-09-05T01:29:35.711Z,3.60
2022-09-05T01:32:16.813Z,3.80
2022-09-05T01:34:56.966Z,3.77
2022-09-05T01:37:37.352Z,3.43
2022-09-05T01:40:19.695Z,3.63
2022-09-05T01:43:06.967Z,3.40
2022-09-05T01:45:50.591Z,3.67
2022-09-05T01:48:31.246Z,3.97
2022-09-05T01:51:28.634Z,3.87
2022-09-05T01:54:23.859Z,4.23
2022-09-05T01:57:04.470Z,3.77
2022-09-05T01:59:45.249Z,3.73
2022-09-05T02:02:37.573Z,3.90
2022-09-05T02:05:48.208Z,3.50
2022-09-05T02:08:35.064Z,3.47
2022-09-05T02:11:06.078Z,3.77
2022-09-05T02:13:57.336Z,3.63
2022-09-05T02:16:33.492Z,3.93
2022-09-05T02:19:09.865Z,4.03
2022-09-05T02:21:56.180Z,4.30
2022-09-05T02:24:29.066Z,3.93
2022-09-05T02:27:31.574Z,3.77
2022-09-05T02:30:08.657Z,3.67
2022-09-05T02:32:47.113Z,3.67
2022-09-05T02:35:22.865Z,4.00
2022-09-05T02:39:49.888Z,3.83
2022-09-05T02:45:06.890Z,4.10
2022-09-05T02:45:10.845Z,3.87
2022-09-05T02:46:38.721Z,4.07
2022-09-05T02:49:41.862Z,3.33
2022-09-05T02:57:27.163Z,3.83
2022-09-05T02:57:47.031Z,3.77
2022-09-05T02:58:05.752Z,3.27
2022-09-05T03:00:42.252Z,3.40
2022-09-05T03:03:27.671Z,3.10
2022-09-05T03:06:01.188Z,2.97
2022-09-05T03:08:46.294Z,3.00
2022-09-05T03:11:44.403Z,3.40
2022-09-05T03:15:00.568Z,3.90
2022-09-05T03:17:53.374Z,2.90
2022-09-05T03:20:51.203Z,3.20
2022-09-05T03:23:52.616Z,3.40
2022-09-05T03:27:04.739Z,3.60
2022-09-05T03:30:12.026Z,3.37
2022-09-05T03:33:12.272Z,3.40
2022-09-05T03:36:28.209Z,3.43
2022-09-05T03:39:23.012Z,2.80
2022-09-05T03:42:16.982Z,3.23
2022-09-05T03:45:26.979Z,3.80
2022-09-05T03:48:32.655Z,3.57
2022-09-05T03:57:13.566Z,3.30
2022-09-05T03:57:28.412Z,3.87
2022-09-05T03:57:41.398Z,3.50
2022-09-05T04:00:20.737Z,3.50
2022-09-05T04:08:06.280Z,3.27
2022-09-05T04:08:18.930Z,3.53
2022-09-05T04:08:52.324Z,3.60
2022-09-05T04:11:31.682Z,3.60
2022-09-05T04:14:02.588Z,4.47
2022-09-05T04:16:40.781Z,3.93
2022-09-05T04:19:14.537Z,4.67
2022-09-05T04:21:50.707Z,4.60
2022-09-05T04:24:29.400Z,5.37
2022-09-05T04:27:22.112Z,4.30
2022-09-05T04:30:01.378Z,4.20
2022-09-05T04:32:54.529Z,4.50
2022-09-05T04:35:30.142Z,4.17
2022-09-05T04:38:06.081Z,4.00
2022-09-05T04:40:43.724Z,3.93
2022-09-05T04:43:17.311Z,4.43
2022-09-05T04:45:50.699Z,4.20
2022-09-05T04:48:23.054Z,4.73
2022-09-05T04:51:05.956Z,4.27
2022-09-05T04:54:05.998Z,3.90
2022-09-05T04:56:39.188Z,3.80
2022-09-05T05:01:18.710Z,4.77
2022-09-05T05:06:08.360Z,4.03
2022-09-05T05:06:12.588Z,4.47
2022-09-05T05:08:03.348Z,4.13
2022-09-05T05:12:21.181Z,4.27
2022-09-05T05:17:56.225Z,4.37
2022-09-05T05:18:15.332Z,4.97
2022-09-05T05:19:22.116Z,4.60
2022-09-05T05:21:53.733Z,4.23
2022-09-05T05:24:25.571Z,4.50
2022-09-05T05:26:57.530Z,4.37
2022-09-05T05:29:32.385Z,6.77
2022-09-05T05:32:03.829Z,4.53
2022-09-05T05:34:35.289Z,4.57
2022-09-05T05:37:12.545Z,4.03
2022-09-05T05:39:45.594Z,4.63
2022-09-05T05:42:20.565Z,3.83
2022-09-05T05:44:53.904Z,4.20
2022-09-05T05:47:31.235Z,4.07
2022-09-05T05:50:11.598Z,4.50
2022-09-05T05:52:56.196Z,5.03
2022-09-05T05:55:53.108Z,4.00
2022-09-05T05:58:53.278Z,3.97
2022-09-05T06:01:57.765Z,4.30
2022-09-05T06:04:49.537Z,3.60
2022-09-05T06:07:30.436Z,3.13
2022-09-05T06:14:49.120Z,3.37
2022-09-05T06:15:02.948Z,3.63
2022-09-05T06:17:00.167Z,3.77
2022-09-05T06:22:04.829Z,3.80
2022-09-05T06:23:30.789Z,2.87
2022-09-05T06:26:45.697Z,3.33
2022-09-05T06:29:34.534Z,2.53
2022-09-05T06:32:21.973Z,3.40
2022-09-05T06:35:24.959Z,3.07
2022-09-05T06:38:07.670Z,2.53
2022-09-05T06:40:42.887Z,3.10
2022-09-05T06:43:25.187Z,2.80
2022-09-05T06:46:04.018Z,2.50
2022-09-05T06:48:46.104Z,2.87
2022-09-05T06:51:49.921Z,2.20
2022-09-05T06:55:10.577Z,2.30
2022-09-05T06:58:00.337Z,2.47
2022-09-05T07:00:35.071Z,2.30
2022-09-05T07:03:20.646Z,2.07
2022-09-05T07:05:57.386Z,2.83
2022-09-05T07:08:36.128Z,2.30
2022-09-05T07:11:15.913Z,2.10
2022-09-05T07:13:55.809Z,2.40
2022-09-05T07:16:37.898Z,2.60
2022-09-05T07:19:26.965Z,2.10
2022-09-05T07:22:18.658Z,2.00
2022-09-05T07:25:08.811Z,2.50
2022-09-05T07:27:41.920Z,2.33
2022-09-05T07:30:29.768Z,2.40
2022-09-05T07:32:59.351Z,2.07
2022-09-05T07:35:29.751Z,2.30
2022-09-05T07:38:07.343Z,2.33
2022-09-05T07:40:40.450Z,2.30
2022-09-05T07:43:11.089Z,2.23
2022-09-05T07:45:56.196Z,2.03
2022-09-05T07:48:34.358Z,2.10
2022-09-05T07:57:02.494Z,2.40
2022-09-05T07:57:10.642Z,1.80
2022-09-05T07:57:22.463Z,2.03
2022-09-05T07:59:41.584Z,2.20
2022-09-05T08:02:13.152Z,1.83
2022-09-05T08:04:42.289Z,2.20
2022-09-05T08:07:49.960Z,1.97
2022-09-05T08:10:10.325Z,1.80
2022-09-05T08:13:00.625Z,2.20
2022-09-05T08:16:09.656Z,2.27
2022-09-05T08:18:28.463Z,1.90
2022-09-05T08:21:00.074Z,2.20
2022-09-05T08:23:48.019Z,1.97
2022-09-05T08:26:20.413Z,2.10
2022-09-05T08:28:58.626Z,2.00
2022-09-05T08:31:35.525Z,3.07
2022-09-05T08:34:18.475Z,2.33
2022-09-05T08:36:58.775Z,2.70
2022-09-05T08:39:29.401Z,1.93
2022-09-05T08:42:10.589Z,2.30
2022-09-05T08:46:42.706Z,2.43
2022-09-05T08:47:45.742Z,2.50
2022-09-05T08:50:30.108Z,2.70
2022-09-05T08:53:18.665Z,2.80
2022-09-05T08:56:06.127Z,2.90
2022-09-05T08:59:27.573Z,2.53
2022-09-05T09:02:44.601Z,2.27
2022-09-05T09:05:14.430Z,2.03
2022-09-05T09:07:55.323Z,2.50
2022-09-05T09:10:36.360Z,2.60
2022-09-05T09:13:12.981Z,2.67
2022-09-05T09:15:46.152Z,2.50
2022-09-05T09:18:16.891Z,2.53
2022-09-05T09:20:52.782Z,2.53
2022-09-05T09:23:45.293Z,2.50
2022-09-05T09:26:15.812Z,2.37
2022-09-05T09:28:53.700Z,2.20
2022-09-05T09:31:35.494Z,2.37
2022-09-05T09:34:36.883Z,2.20
2022-09-05T09:37:51.684Z,2.40
2022-09-05T09:41:02.771Z,2.13
2022-09-05T09:43:52.693Z,2.07
2022-09-05T09:46:39.177Z,2.40
2022-09-05T09:49:28.070Z,2.30
2022-09-05T09:52:24.516Z,2.20
2022-09-05T09:55:17.442Z,2.50
2022-09-05T09:58:12.541Z,2.10
2022-09-05T10:00:51.833Z,2.03
2022-09-05T10:08:36.657Z,2.20
2022-09-05T10:10:44.655Z,2.67
2022-09-05T10:10:49.914Z,2.10
2022-09-05T10:13:35.400Z,2.10
2022-09-05T10:16:41.688Z,2.03
2022-09-05T10:23:02.660Z,2.93
2022-09-05T10:26:00.901Z,1.80
2022-09-05T10:28:39.923Z,2.07
2022-09-05T10:32:32.640Z,2.00
2022-09-05T10:35:13.823Z,2.03
2022-09-05T10:37:11.866Z,2.37
2022-09-05T10:39:43.567Z,1.77
2022-09-05T10:42:16.707Z,2.30
2022-09-05T10:44:53.393Z,1.83
2022-09-05T10:47:34.867Z,1.63
2022-09-05T10:50:13.666Z,1.87
2022-09-05T10:53:01.627Z,2.10
2022-09-05T10:55:38.585Z,1.73
2022-09-05T10:58:31.843Z,2.10
2022-09-05T11:02:29.925Z,2.40
2022-09-05T11:04:21.107Z,1.87
2022-09-05T11:06:54.249Z,1.90
2022-09-05T11:09:37.244Z,1.60
2022-09-05T11:12:16.052Z,1.80
2022-09-05T11:14:52.366Z,1.90
2022-09-05T11:17:31.809Z,1.90
2022-09-05T11:20:35.425Z,2.00
2022-09-05T11:23:10.271Z,2.00
2022-09-05T11:25:41.034Z,1.83
2022-09-05T11:28:15.975Z,2.40
2022-09-05T11:30:49.613Z,1.90
2022-09-05T11:39:45.624Z,1.87
2022-09-05T11:39:49.259Z,2.00
2022-09-05T11:40:31.185Z,1.90
2022-09-05T11:43:44.687Z,1.87
2022-09-05T11:46:29.998Z,2.20
2022-09-05T11:49:34.868Z,1.80
2022-09-05T11:52:32.715Z,1.70
2022-09-05T11:55:24.564Z,1.97
2022-09-05T11:58:44.607Z,1.70
2022-09-05T12:01:42.260Z,1.70
2022-09-05T12:04:38.628Z,1.90
2022-09-05T12:07:27.073Z,1.80
2022-09-05T12:10:45.847Z,1.90
2022-09-05T12:13:17.299Z,2.10
2022-09-05T12:16:03.081Z,1.50
2022-09-05T12:18:44.596Z,2.17
2022-09-05T12:21:31.679Z,1.80
2022-09-05T12:24:59.221Z,1.60
2022-09-05T12:27:42.035Z,1.67
2022-09-05T12:29:59.764Z,1.50
2022-09-05T12:36:07.972Z,1.80
2022-09-05T12:41:14.838Z,1.50
2022-09-05T12:41:42.042Z,1.70
2022-09-05T12:41:44.764Z,1.53
2022-09-05T12:44:41.994Z,1.87
2022-09-05T12:47:16.871Z,1.63
2022-09-05T12:50:02.671Z,1.30
2022-09-05T12:52:42.460Z,1.50
2022-09-05T12:55:22.385Z,1.67
2022-09-05T13:02:58.728Z,1.57
2022-09-05T13:03:06.576Z,1.60
2022-09-05T13:04:05.965Z,1.53
2022-09-05T13:06:39.093Z,1.70
2022-09-05T13:09:11.370Z,2.07
2022-09-05T13:14:58.078Z,1.63
2022-09-05T13:15:06.056Z,1.67
2022-09-05T13:17:44.573Z,1.67
2022-09-05T13:20:19.020Z,1.53
2022-09-05T13:22:50.953Z,1.90
2022-09-05T13:25:24.997Z,1.90
2022-09-05T13:28:01.546Z,1.53
2022-09-05T13:36:04.011Z,2.03
2022-09-05T13:38:10.165Z,1.73
2022-09-05T13:38:29.415Z,2.03
2022-09-05T13:39:06.583Z,1.57
2022-09-05T13:41:37.069Z,1.77
2022-09-05T13:44:26.593Z,1.70
2022-09-05T13:47:00.861Z,2.20
2022-09-05T13:49:33.085Z,1.97
2022-09-05T13:52:18.635Z,2.17
2022-09-05T13:54:51.677Z,1.90
2022-09-05T13:57:33.247Z,1.77
2022-09-05T14:00:39.116Z,1.67
2022-09-05T14:03:45.621Z,1.93
2022-09-05T14:06:46.079Z,1.70
2022-09-05T14:09:39.259Z,1.50
2022-09-05T14:12:15.156Z,1.70
2022-09-05T14:17:52.012Z,2.00
2022-09-05T14:20:43.246Z,2.03
2022-09-05T14:23:13.784Z,1.80
2022-09-05T14:25:44.823Z,1.50
2022-09-05T14:28:18.832Z,1.97
2022-09-05T14:33:48.804Z,1.90
2022-09-05T14:37:39.309Z,1.87
2022-09-05T14:37:42.038Z,1.97
2022-09-05T14:40:37.160Z,1.67
2022-09-05T14:43:27.425Z,2.10
2022-09-05T14:46:10.254Z,1.90
2022-09-05T14:49:18.272Z,1.63
2022-09-05T14:51:49.577Z,1.60
2022-09-05T15:02:39.119Z,1.77
2022-09-05T15:02:45.107Z,1.90
2022-09-05T15:03:03.980Z,1.90
2022-09-05T15:05:41.381Z,1.77
2022-09-05T15:09:39.005Z,2.20
2022-09-05T15:12:16.423Z,2.13
2022-09-05T15:14:03.517Z,2.10
2022-09-05T15:16:35.488Z,1.97
2022-09-05T15:19:03.292Z,2.00
2022-09-05T15:21:35.308Z,2.10
2022-09-05T15:24:17.089Z,2.23
2022-09-05T15:26:52.544Z,1.73
2022-09-05T15:29:23.641Z,1.83
2022-09-05T15:31:54.594Z,1.70
2022-09-05T15:34:38.994Z,2.10
2022-09-05T15:37:23.919Z,1.50
2022-09-05T15:40:04.701Z,1.90
2022-09-05T15:42:43.704Z,1.90
2022-09-05T15:45:13.600Z,1.80
2022-09-05T15:47:52.577Z,1.83
2022-09-05T15:50:26.357Z,1.70
2022-09-05T15:52:56.063Z,1.83
2022-09-05T15:55:27.624Z,1.90
2022-09-05T15:58:00.624Z,1.50
2022-09-05T16:00:51.420Z,1.80
2022-09-05T16:04:36.431Z,2.27
2022-09-05T16:10:28.292Z,2.50
2022-09-05T16:10:34.790Z,2.13
2022-09-05T16:12:17.075Z,2.00
2022-09-05T16:15:45.268Z,2.20
2022-09-05T16:23:18.225Z,2.00
2022-09-05T16:23:28.259Z,1.80
2022-09-05T16:23:43.830Z,1.80
2022-09-05T16:26:24.805Z,1.90
2022-09-05T16:28:59.243Z,2.00
2022-09-05T16:31:38.358Z,1.63
2022-09-05T16:34:11.834Z,1.93
2022-09-05T16:36:47.597Z,2.47
2022-09-05T16:39:26.082Z,1.93
2022-09-05T16:41:58.848Z,1.67
2022-09-05T16:44:35.502Z,1.77
2022-09-05T16:47:11.134Z,1.87
2022-09-05T16:49:44.026Z,2.00
2022-09-05T16:52:17.786Z,1.90
2022-09-05T16:54:52.633Z,2.10
2022-09-05T16:57:24.200Z,2.07
2022-09-05T16:59:53.791Z,1.70
2022-09-05T17:02:28.754Z,1.83
2022-09-05T17:05:09.636Z,1.60
2022-09-05T17:08:00.249Z,1.53
2022-09-05T17:10:30.403Z,1.87
2022-09-05T17:12:58.178Z,1.70
2022-09-05T17:15:32.169Z,1.60
2022-09-05T17:18:21.493Z,1.90
2022-09-05T17:20:55.785Z,2.10
2022-09-05T17:26:17.509Z,2.07
2022-09-05T17:29:33.326Z,1.87
2022-09-05T17:32:51.593Z,1.57
2022-09-05T17:35:42.543Z,1.80
2022-09-05T17:38:38.911Z,1.90
2022-09-05T17:41:21.048Z,2.03
2022-09-05T17:43:52.294Z,2.20
2022-09-05T17:46:25.002Z,2.17
2022-09-05T17:49:18.944Z,1.83
2022-09-05T17:52:18.566Z,1.93
2022-09-05T17:54:50.228Z,1.40
2022-09-05T17:57:48.957Z,2.50
2022-09-05T18:01:04.520Z,2.40
2022-09-05T18:04:15.987Z,3.83
2022-09-05T18:06:59.488Z,3.40
2022-09-05T18:13:31.507Z,3.13
2022-09-05T18:16:11.568Z,2.60
2022-09-05T18:21:48.225Z,4.80
2022-09-05T18:24:24.219Z,4.50
2022-09-05T18:26:55.907Z,5.10
2022-09-05T18:29:58.647Z,4.20
2022-09-05T18:32:43.815Z,4.20
2022-09-05T18:35:26.647Z,3.77
2022-09-05T18:38:50.514Z,4.20
2022-09-05T18:41:18.326Z,4.63
2022-09-05T18:44:13.684Z,5.00
2022-09-05T18:46:51.071Z,4.30
2022-09-05T18:50:21.393Z,5.43
2022-09-05T18:52:16.527Z,4.60
2022-09-05T18:55:52.662Z,4.47
2022-09-05T18:57:50.349Z,4.20
2022-09-05T19:00:35.342Z,4.10
2022-09-05T19:03:19.409Z,4.40
2022-09-05T19:05:50.847Z,4.37
2022-09-05T19:08:28.995Z,4.60
2022-09-05T19:11:27.743Z,4.93
2022-09-05T19:14:18.244Z,4.53
2022-09-05T19:16:47.872Z,6.50
2022-09-05T19:19:18.368Z,5.30
2022-09-05T19:21:56.133Z,5.60
2022-09-05T19:24:45.223Z,4.67
2022-09-05T19:32:20.202Z,5.70
2022-09-05T19:36:50.522Z,8.70
2022-09-05T19:36:57.478Z,6.00
2022-09-05T19:37:04.208Z,5.60
2022-09-05T19:39:49.355Z,6.73
2022-09-05T19:47:30.725Z,5.70
2022-09-05T19:47:40.431Z,5.43
2022-09-05T19:47:42.802Z,5.53
2022-09-05T19:50:11.279Z,5.67
2022-09-05T19:52:40.167Z,5.30
2022-09-05T19:55:21.715Z,5.40
2022-09-05T19:58:14.951Z,4.60
2022-09-05T20:00:41.620Z,4.60
2022-09-05T20:03:10.237Z,5.40
2022-09-05T20:05:42.041Z,5.50
2022-09-05T20:08:29.874Z,5.27
2022-09-05T20:11:01.933Z,6.00
2022-09-05T20:13:29.675Z,5.40
2022-09-05T20:16:01.842Z,5.33
2022-09-05T20:18:39.427Z,5.47
2022-09-05T20:21:10.994Z,4.83
2022-09-05T20:23:41.925Z,5.87
2022-09-05T20:26:11.022Z,5.80
2022-09-05T20:28:41.822Z,5.53
2022-09-05T20:31:15.886Z,6.90
2022-09-05T20:33:51.651Z,6.50
2022-09-05T20:43:18.808Z,5.93
2022-09-05T20:43:21.748Z,5.07
2022-09-05T20:43:28.947Z,4.30
2022-09-05T20:44:52.623Z,4.87
2022-09-05T20:54:08.046Z,4.23
2022-09-05T20:54:10.059Z,4.63
2022-09-05T20:54:27.329Z,3.73
2022-09-05T20:56:10.960Z,4.33
2022-09-05T20:58:40.038Z,6.43
2022-09-05T21:01:21.132Z,5.77
2022-09-05T21:03:57.201Z,4.77
2022-09-05T21:06:29.451Z,4.83
2022-09-05T21:09:16.095Z,4.37
2022-09-05T21:11:52.706Z,4.00
2022-09-05T21:14:22.130Z,5.17
2022-09-05T21:16:57.135Z,3.57
2022-09-05T21:19:30.495Z,4.10
2022-09-05T21:22:07.143Z,3.90
2022-09-05T21:24:35.135Z,3.73
2022-09-05T21:27:17.466Z,4.87
2022-09-05T21:29:45.593Z,4.60
2022-09-05T21:32:30.235Z,3.70
2022-09-05T21:35:15.312Z,3.70
2022-09-05T21:37:55.895Z,4.20
2022-09-05T21:40:23.822Z,3.97
2022-09-05T21:46:42.870Z,3.23
2022-09-05T21:47:38.729Z,3.63
2022-09-05T21:48:28.553Z,3.17
2022-09-05T21:51:00.438Z,3.50
2022-09-05T21:54:54.675Z,3.43
2022-09-05T21:59:16.895Z,3.60
2022-09-05T21:59:30.076Z,3.30
2022-09-05T22:01:53.313Z,3.80
2022-09-05T22:04:22.411Z,3.97
2022-09-05T22:06:53.263Z,3.30
2022-09-05T22:09:22.212Z,4.20
2022-09-05T22:11:51.147Z,3.50
2022-09-05T22:14:19.031Z,3.80
2022-09-05T22:16:50.204Z,4.07
2022-09-05T22:19:22.809Z,4.43
2022-09-05T22:21:54.660Z,3.90
2022-09-05T22:24:24.636Z,3.73
2022-09-05T22:27:12.715Z,3.33
2022-09-05T22:29:40.855Z,3.97
2022-09-05T22:32:08.934Z,3.80
2022-09-05T22:34:36.645Z,3.80
2022-09-05T22:37:05.813Z,3.80
2022-09-05T22:39:37.529Z,3.77
2022-09-05T22:42:10.172Z,3.20
2022-09-05T22:44:38.942Z,3.43
2022-09-05T22:47:06.879Z,3.33
2022-09-05T22:49:36.541Z,3.83
2022-09-05T22:52:07.429Z,3.60
2022-09-05T22:54:35.150Z,3.27
2022-09-05T22:57:03.311Z,3.30
2022-09-05T22:59:31.096Z,3.60
2022-09-05T23:01:58.783Z,3.30
2022-09-05T23:04:26.771Z,4.90
2022-09-05T23:06:54.661Z,4.03
2022-09-05T23:09:23.765Z,3.50
2022-09-05T23:11:51.470Z,3.00
2022-09-05T23:14:19.079Z,3.77
2022-09-05T23:16:46.659Z,3.27
2022-09-05T23:19:14.231Z,3.17
2022-09-05T23:21:41.806Z,3.13
2022-09-05T23:24:09.442Z,3.10
2022-09-05T23:26:38.340Z,3.50
2022-09-05T23:29:05.922Z,2.97
2022-09-05T23:31:33.649Z,3.67
2022-09-05T23:34:01.370Z,3.30
2022-09-05T23:36:29.018Z,3.10
2022-09-05T23:38:56.797Z,2.87
2022-09-05T23:41:24.462Z,2.93
2022-09-05T23:43:53.527Z,2.80
2022-09-05T23:46:21.448Z,3.10
2022-09-05T23:48:49.261Z,3.13
2022-09-05T23:51:17.331Z,2.87
2022-09-05T23:53:46.081Z,2.43
2022-09-05T23:56:13.832Z,3.27
2022-09-05T23:58:41.495Z,3.07
